createdAt,value
2024-01-12T00:01:05.396Z,89.23
2024-01-12T00:03:32.020Z,88.37
2024-01-12T00:05:58.657Z,89.57
2024-01-12T00:08:25.314Z,89.16
2024-01-12T00:10:51.810Z,88.97
2024-01-12T00:13:18.765Z,88.76
2024-01-12T00:15:45.408Z,88.18
2024-01-12T00:18:13.309Z,88.38
2024-01-12T00:20:44.398Z,88.17
2024-01-12T00:23:11.643Z,89.28
2024-01-12T00:25:38.216Z,88.96
2024-01-12T00:28:05.270Z,88.72
2024-01-12T00:30:31.844Z,89.38
2024-01-12T00:32:58.862Z,89.40
2024-01-12T00:35:25.582Z,88.86
2024-01-12T00:37:52.112Z,89.89
2024-01-12T00:40:18.887Z,90.42
2024-01-12T00:42:45.441Z,90.58
2024-01-12T00:45:12.189Z,90.03
2024-01-12T00:47:38.852Z,91.51
2024-01-12T00:50:05.980Z,92.24
2024-01-12T00:52:32.621Z,91.85
2024-01-12T00:55:00.792Z,92.01
2024-01-12T00:57:27.538Z,92.65
2024-01-12T00:59:54.115Z,92.33
2024-01-12T01:02:20.694Z,91.68
2024-01-12T01:04:47.276Z,91.67
2024-01-12T01:07:13.924Z,91.85
2024-01-12T01:09:40.546Z,91.76
2024-01-12T01:12:07.536Z,92.01
2024-01-12T01:14:34.149Z,93.15
2024-01-12T01:17:00.723Z,92.57
2024-01-12T01:19:27.509Z,92.81
2024-01-12T01:21:54.399Z,93.20
2024-01-12T01:24:20.974Z,94.07
2024-01-12T01:26:47.622Z,93.45
2024-01-12T01:29:14.417Z,93.92
2024-01-12T01:31:40.960Z,93.13
2024-01-12T01:34:07.574Z,92.82
2024-01-12T01:36:34.316Z,93.28
2024-01-12T01:39:00.846Z,92.52
2024-01-12T01:41:27.402Z,92.61
2024-01-12T01:43:53.980Z,93.08
2024-01-12T01:46:20.931Z,92.78
2024-01-12T01:48:47.815Z,93.98
2024-01-12T01:51:14.937Z,93.10
2024-01-12T01:53:42.022Z,93.51
2024-01-12T01:56:12.522Z,93.93
2024-01-12T01:58:39.383Z,93.11
2024-01-12T02:01:06.695Z,93.37
2024-01-12T02:03:34.438Z,93.58
2024-01-12T02:06:01.213Z,93.47
2024-01-12T02:08:28.560Z,94.25
2024-01-12T02:10:56.909Z,94.04
2024-01-12T02:13:23.782Z,94.11
2024-01-12T02:15:50.589Z,94.84
2024-01-12T02:18:17.434Z,95.06
2024-01-12T02:20:49.104Z,94.51
2024-01-12T02:23:16.348Z,95.22
2024-01-12T02:25:45.727Z,95.89
2024-01-12T02:28:13.651Z,95.30
2024-01-12T02:30:40.755Z,94.59
2024-01-12T02:33:08.315Z,94.41
2024-01-12T02:35:35.436Z,96.09
2024-01-12T02:38:02.115Z,97.32
2024-01-12T02:40:28.679Z,97.06
2024-01-12T02:42:55.336Z,97.52
2024-01-12T02:45:22.204Z,97.90
2024-01-12T02:47:48.869Z,98.42
2024-01-12T02:50:15.640Z,97.71
2024-01-12T02:52:42.354Z,98.05
2024-01-12T02:55:09.293Z,96.72
2024-01-12T02:57:35.938Z,96.24
2024-01-12T03:00:05.685Z,95.44
2024-01-12T03:02:34.132Z,96.11
2024-01-12T03:05:00.783Z,96.32
2024-01-12T03:07:27.457Z,96.54
2024-01-12T03:09:54.015Z,96.17
2024-01-12T03:12:20.555Z,95.80
2024-01-12T03:14:47.162Z,96.08
2024-01-12T03:17:13.839Z,96.02
2024-01-12T03:19:40.462Z,96.11
2024-01-12T03:22:07.019Z,95.76
2024-01-12T03:24:33.587Z,95.44
2024-01-12T03:27:00.283Z,95.76
2024-01-12T03:29:27.071Z,95.44
2024-01-12T03:31:53.677Z,95.19
2024-01-12T03:34:20.418Z,94.79
2024-01-12T03:36:47.187Z,94.86
2024-01-12T03:39:14.336Z,94.51
2024-01-12T03:41:41.012Z,94.55
2024-01-12T03:44:07.624Z,95.29
2024-01-12T03:46:34.210Z,94.89
2024-01-12T03:49:00.862Z,95.12
2024-01-12T03:51:27.412Z,95.14
2024-01-12T03:56:20.661Z,95.37
2024-01-12T03:58:47.272Z,95.16
2024-01-12T04:01:14.111Z,95.38
2024-01-12T04:03:41.534Z,95.30
2024-01-12T04:06:11.778Z,95.83
2024-01-12T04:08:38.692Z,95.47
2024-01-12T04:11:05.362Z,95.02
2024-01-12T04:13:31.986Z,94.75
2024-01-12T04:15:58.534Z,94.69
2024-01-12T04:18:25.375Z,94.56
2024-01-12T04:20:52.172Z,94.40
2024-01-12T04:23:18.761Z,94.45
2024-01-12T04:25:45.320Z,94.32
2024-01-12T04:28:11.889Z,94.26
2024-01-12T04:30:38.457Z,94.25
2024-01-12T04:33:05.421Z,95.03
2024-01-12T04:35:32.545Z,94.53
2024-01-12T04:38:00.317Z,95.17
2024-01-12T04:40:27.210Z,94.68
2024-01-12T04:42:53.959Z,94.54
2024-01-12T04:45:20.658Z,94.21
2024-01-12T04:47:47.333Z,94.09
2024-01-12T04:50:14.108Z,94.06
2024-01-12T04:52:40.786Z,93.88
2024-01-12T04:55:07.746Z,93.83
2024-01-12T04:57:34.348Z,94.09
2024-01-12T05:00:01.070Z,94.45
2024-01-12T05:02:28.017Z,93.98
2024-01-12T05:04:54.569Z,93.43
2024-01-12T05:07:21.177Z,94.21
2024-01-12T05:09:47.711Z,94.13
2024-01-12T05:12:14.351Z,94.31
2024-01-12T05:14:43.464Z,93.50
2024-01-12T05:17:10.194Z,93.60
2024-01-12T05:19:36.810Z,93.48
2024-01-12T05:22:03.480Z,93.52
2024-01-12T05:24:30.013Z,93.54
2024-01-12T05:26:56.597Z,93.93
2024-01-12T05:29:23.239Z,93.90
2024-01-12T05:31:49.793Z,94.01
2024-01-12T05:34:16.500Z,94.05
2024-01-12T05:36:43.131Z,94.11
2024-01-12T05:39:10.287Z,94.43
2024-01-12T05:41:36.899Z,94.33
2024-01-12T05:44:03.472Z,94.04
2024-01-12T05:46:29.988Z,93.71
2024-01-12T05:48:56.799Z,94.25
2024-01-12T05:51:23.808Z,94.22
2024-01-12T05:53:50.511Z,94.31
2024-01-12T05:56:17.264Z,94.13
2024-01-12T05:58:43.800Z,94.78
2024-01-12T06:01:11.714Z,94.54
2024-01-12T06:03:39.674Z,94.15
2024-01-12T06:06:06.462Z,94.49
2024-01-12T06:08:33.172Z,94.27
2024-01-12T06:10:59.805Z,94.26
2024-01-12T06:13:26.622Z,94.43
2024-01-12T06:15:55.162Z,94.56
2024-01-12T06:18:23.258Z,94.75
2024-01-12T06:20:50.066Z,94.65
2024-01-12T06:23:16.976Z,94.54
2024-01-12T06:25:43.595Z,94.73
2024-01-12T06:28:11.941Z,95.07
2024-01-12T06:30:38.614Z,95.00
2024-01-12T06:33:05.805Z,94.88
2024-01-12T06:35:32.500Z,95.04
2024-01-12T06:37:59.135Z,95.61
2024-01-12T06:40:25.882Z,95.67
2024-01-12T06:42:54.051Z,95.56
2024-01-12T06:45:20.616Z,95.77
2024-01-12T06:47:47.257Z,95.50
2024-01-12T06:50:14.064Z,95.45
2024-01-12T06:52:40.652Z,96.53
2024-01-12T06:55:07.562Z,95.84
2024-01-12T06:57:34.384Z,96.94
2024-01-12T07:00:01.232Z,96.38
2024-01-12T07:02:28.101Z,96.53
2024-01-12T07:04:54.718Z,96.38
2024-01-12T07:07:21.295Z,96.43
2024-01-12T07:09:47.834Z,96.00
2024-01-12T07:12:14.613Z,95.93
2024-01-12T07:14:41.310Z,97.07
2024-01-12T07:17:07.950Z,96.90
2024-01-12T07:19:34.548Z,96.79
2024-01-12T07:22:01.141Z,96.52
2024-01-12T07:24:27.713Z,96.72
2024-01-12T07:26:54.310Z,96.87
2024-01-12T07:29:23.640Z,96.85
2024-01-12T07:31:51.130Z,97.72
2024-01-12T07:34:18.836Z,97.84
2024-01-12T07:36:45.984Z,98.52
2024-01-12T07:39:13.327Z,98.38
2024-01-12T07:41:40.471Z,97.88
2024-01-12T07:44:08.544Z,98.05
2024-01-12T07:46:36.141Z,97.68
2024-01-12T07:49:03.138Z,97.27
2024-01-12T07:51:29.863Z,96.86
2024-01-12T07:53:56.504Z,96.78
2024-01-12T07:56:23.240Z,97.70
2024-01-12T07:58:49.863Z,97.92
2024-01-12T08:01:20.043Z,97.27
2024-01-12T08:03:48.744Z,96.96
2024-01-12T08:06:16.259Z,97.48
2024-01-12T08:08:42.859Z,96.82
2024-01-12T08:11:23.152Z,97.28
2024-01-12T08:13:54.337Z,96.69
2024-01-12T08:16:22.780Z,96.37
2024-01-12T08:18:49.473Z,96.36
2024-01-12T08:21:15.964Z,96.50
2024-01-12T08:23:42.536Z,96.96
2024-01-12T08:26:09.112Z,96.93
2024-01-12T08:28:35.599Z,96.19
2024-01-12T08:31:04.690Z,97.24
2024-01-12T08:33:32.315Z,96.85
2024-01-12T08:35:59.018Z,97.25
2024-01-12T08:38:25.601Z,96.94
2024-01-12T08:40:52.200Z,98.09
2024-01-12T08:43:20.347Z,98.68
2024-01-12T08:45:47.006Z,98.07
2024-01-12T08:48:13.890Z,98.49
2024-01-12T08:50:40.723Z,97.74
2024-01-12T08:53:07.335Z,97.72
2024-01-12T08:55:33.940Z,97.32
2024-01-12T08:58:00.447Z,98.84
2024-01-12T09:00:27.010Z,98.55
2024-01-12T09:02:53.651Z,98.19
2024-01-12T09:05:21.612Z,97.99
2024-01-12T09:07:48.302Z,98.34
2024-01-12T09:10:15.093Z,98.03
2024-01-12T09:12:41.638Z,97.79
2024-01-12T09:15:09.580Z,97.61
2024-01-12T09:17:36.571Z,98.25
2024-01-12T09:20:03.459Z,98.08
2024-01-12T09:22:30.406Z,97.65
2024-01-12T09:24:57.630Z,97.44
2024-01-12T09:27:24.211Z,97.36
2024-01-12T09:29:50.797Z,98.21
2024-01-12T09:32:17.412Z,98.02
2024-01-12T09:34:44.053Z,98.06
2024-01-12T09:37:10.672Z,97.96
2024-01-12T09:39:37.593Z,98.18
2024-01-12T09:42:10.117Z,98.30
2024-01-12T09:44:44.754Z,97.71
2024-01-12T09:47:17.801Z,97.98
2024-01-12T09:49:44.889Z,98.88
2024-01-12T09:52:11.575Z,98.29
2024-01-12T09:54:38.200Z,98.40
2024-01-12T09:57:07.672Z,97.44
2024-01-12T09:59:37.177Z,97.94
2024-01-12T10:02:05.480Z,97.29
2024-01-12T10:04:32.091Z,97.67
2024-01-12T10:06:58.946Z,96.92
2024-01-12T10:09:26.356Z,97.77
2024-01-12T10:11:57.318Z,97.84
2024-01-12T10:14:24.472Z,97.13
2024-01-12T10:16:57.730Z,97.77
2024-01-12T10:19:25.242Z,98.30
2024-01-12T10:21:52.715Z,98.50
2024-01-12T10:24:21.066Z,97.94
2024-01-12T10:26:48.439Z,97.49
2024-01-12T10:29:16.582Z,98.06
2024-01-12T10:31:44.263Z,98.46
2024-01-12T10:34:16.288Z,97.91
2024-01-12T10:36:43.848Z,98.39
2024-01-12T10:39:13.211Z,98.60
2024-01-12T10:41:41.901Z,97.87
2024-01-12T10:44:09.386Z,98.65
2024-01-12T10:46:50.189Z,97.76
2024-01-12T10:49:22.111Z,97.47
2024-01-12T10:52:20.889Z,97.63
2024-01-12T10:54:54.043Z,97.50
2024-01-12T10:57:22.713Z,97.68
2024-01-12T10:59:50.841Z,97.39
2024-01-12T11:02:19.241Z,97.63
2024-01-12T11:04:47.890Z,97.36
2024-01-12T11:07:16.113Z,97.13
2024-01-12T11:09:42.824Z,97.00
2024-01-12T11:12:11.152Z,96.88
2024-01-12T11:14:40.717Z,96.61
2024-01-12T11:17:07.706Z,96.92
2024-01-12T11:19:35.209Z,96.88
2024-01-12T11:22:08.462Z,97.26
2024-01-12T11:24:43.861Z,97.48
2024-01-12T11:27:13.098Z,97.33
2024-01-12T11:29:40.424Z,97.43
2024-01-12T11:32:07.930Z,97.25
2024-01-12T11:34:35.938Z,96.62
2024-01-12T11:37:04.169Z,96.16
2024-01-12T11:39:35.340Z,96.82
2024-01-12T11:42:09.359Z,96.97
2024-01-12T11:44:37.596Z,97.24
2024-01-12T11:47:09.407Z,97.72
2024-01-12T11:49:36.620Z,98.67
2024-01-12T11:52:07.870Z,99.48
2024-01-12T11:54:34.597Z,99.41
2024-01-12T11:57:03.354Z,99.32
2024-01-12T11:59:30.506Z,98.99
2024-01-12T12:01:57.062Z,99.12
2024-01-12T12:04:23.659Z,99.51
2024-01-12T12:06:50.419Z,99.32
2024-01-12T12:09:17.064Z,99.46
2024-01-12T12:11:43.629Z,99.40
2024-01-12T12:14:10.126Z,100.00
2024-01-12T12:16:36.668Z,100.00
2024-01-12T12:19:04.338Z,100.00
2024-01-12T12:21:31.397Z,100.00
2024-01-12T12:23:59.954Z,100.00
2024-01-12T12:26:26.919Z,100.00
2024-01-12T12:28:57.150Z,100.00
2024-01-12T12:31:23.696Z,100.00
2024-01-12T12:33:50.352Z,100.00
2024-01-12T12:36:18.482Z,100.00
2024-01-12T12:38:45.999Z,100.00
2024-01-12T12:41:12.743Z,100.00
2024-01-12T12:43:39.628Z,100.00
2024-01-12T12:46:06.623Z,100.00
2024-01-12T12:48:33.595Z,100.00
2024-01-12T12:51:00.449Z,100.00
2024-01-12T12:53:27.097Z,100.00
2024-01-12T12:55:53.741Z,100.00
2024-01-12T12:58:20.843Z,100.00
2024-01-12T13:00:47.401Z,100.00
2024-01-12T13:03:14.014Z,100.00
2024-01-12T13:05:40.893Z,100.00
2024-01-12T13:08:08.754Z,100.00
2024-01-12T13:10:38.320Z,100.00
2024-01-12T13:13:05.559Z,100.00
2024-01-12T13:15:33.301Z,100.00
2024-01-12T13:18:00.036Z,100.00
2024-01-12T13:20:27.148Z,100.00
2024-01-12T13:22:54.178Z,100.00
2024-01-12T13:25:20.897Z,100.00
2024-01-12T13:27:48.223Z,100.00
2024-01-12T13:30:15.154Z,100.00
2024-01-12T13:32:42.483Z,100.00
2024-01-12T13:35:09.371Z,100.00
2024-01-12T13:37:36.099Z,100.00
2024-01-12T13:40:02.898Z,100.00
2024-01-12T13:42:29.624Z,100.00
2024-01-12T13:44:56.239Z,100.00
2024-01-12T13:47:23.041Z,100.00
2024-01-12T13:49:49.778Z,100.00
2024-01-12T13:52:16.435Z,100.00
2024-01-12T13:54:42.978Z,100.00
2024-01-12T13:57:09.817Z,100.00
2024-01-12T13:59:37.833Z,100.00
2024-01-12T14:02:05.551Z,100.00
2024-01-12T14:04:33.627Z,100.00
2024-01-12T14:07:00.755Z,100.00
2024-01-12T14:09:28.057Z,100.00
2024-01-12T14:11:54.921Z,100.00
2024-01-12T14:14:22.504Z,100.00
2024-01-12T14:16:49.186Z,100.00
2024-01-12T14:19:17.192Z,100.00
2024-01-12T14:21:44.241Z,100.00
2024-01-12T14:24:13.028Z,100.00
2024-01-12T14:26:40.651Z,100.00
2024-01-12T14:29:09.240Z,100.00
2024-01-12T14:31:36.306Z,100.00
2024-01-12T14:34:03.413Z,100.00
2024-01-12T14:36:30.150Z,100.00
2024-01-12T14:38:56.818Z,100.00
2024-01-12T14:41:23.454Z,100.00
2024-01-12T14:43:50.020Z,100.00
2024-01-12T14:46:16.659Z,100.00
2024-01-12T14:48:43.613Z,100.00
2024-01-12T14:51:10.297Z,100.00
2024-01-12T14:53:39.297Z,100.00
2024-01-12T14:56:09.536Z,100.00
2024-01-12T14:58:37.094Z,100.00
2024-01-12T15:01:03.847Z,100.00
2024-01-12T15:03:30.638Z,100.00
2024-01-12T15:05:57.441Z,100.00
2024-01-12T15:08:24.441Z,100.00
2024-01-12T15:10:51.328Z,100.00
2024-01-12T15:13:18.644Z,100.00
2024-01-12T15:15:46.378Z,100.00
2024-01-12T15:18:13.341Z,100.00
2024-01-12T15:20:40.043Z,100.00
2024-01-12T15:23:07.970Z,100.00
2024-01-12T15:25:35.274Z,100.00
2024-01-12T15:28:02.052Z,100.00
2024-01-12T15:30:28.698Z,100.00
2024-01-12T15:32:55.994Z,100.00
2024-01-12T15:35:23.236Z,100.00
2024-01-12T15:37:49.856Z,100.00
2024-01-12T15:40:16.545Z,100.00
2024-01-12T15:42:48.808Z,100.00
2024-01-12T15:45:17.784Z,100.00
2024-01-12T15:47:44.823Z,100.00
2024-01-12T15:50:11.745Z,100.00
2024-01-12T15:52:38.458Z,100.00
2024-01-12T15:55:05.327Z,100.00
2024-01-12T15:57:31.858Z,100.00
2024-01-12T15:59:58.403Z,100.00
2024-01-12T16:02:25.053Z,100.00
2024-01-12T16:04:51.745Z,100.00
2024-01-12T16:07:19.366Z,100.00
2024-01-12T16:09:45.980Z,100.00
2024-01-12T16:12:12.733Z,100.00
2024-01-12T16:14:41.698Z,100.00
2024-01-12T16:17:08.823Z,100.00
2024-01-12T16:19:48.721Z,100.00
2024-01-12T16:22:16.259Z,100.00
2024-01-12T16:24:43.561Z,100.00
2024-01-12T16:27:10.159Z,100.00
2024-01-12T16:29:38.621Z,100.00
2024-01-12T16:32:05.526Z,100.00
2024-01-12T16:34:32.291Z,100.00
2024-01-12T16:36:58.872Z,100.00
2024-01-12T16:39:25.469Z,100.00
2024-01-12T16:41:53.752Z,100.00
2024-01-12T16:44:20.347Z,100.00
2024-01-12T16:46:46.931Z,100.00
2024-01-12T16:49:13.704Z,100.00
2024-01-12T16:51:40.432Z,100.00
2024-01-12T16:54:07.174Z,100.00
2024-01-12T16:56:38.165Z,100.00
2024-01-12T16:59:05.633Z,100.00
2024-01-12T17:01:32.230Z,100.00
2024-01-12T17:03:58.890Z,100.00
2024-01-12T17:06:29.164Z,100.00
2024-01-12T17:08:56.832Z,100.00
2024-01-12T17:11:23.998Z,100.00
2024-01-12T17:13:50.559Z,100.00
2024-01-12T17:16:17.149Z,100.00
2024-01-12T17:31:51.634Z,100.00
2024-01-12T17:34:18.538Z,100.00
2024-01-12T17:36:49.579Z,100.00
2024-01-12T17:39:16.612Z,100.00
2024-01-12T17:41:43.303Z,100.00
2024-01-12T17:44:09.821Z,100.00
2024-01-12T17:46:38.753Z,100.00
2024-01-12T17:49:06.538Z,100.00
2024-01-12T17:51:35.339Z,100.00
2024-01-12T17:54:02.484Z,100.00
2024-01-12T17:56:29.086Z,100.00
2024-01-12T17:58:55.722Z,100.00
2024-01-12T18:01:22.613Z,100.00
2024-01-12T18:03:49.424Z,100.00
2024-01-12T18:06:16.228Z,100.00
2024-01-12T18:08:43.115Z,100.00
2024-01-12T18:11:10.731Z,100.00
2024-01-12T18:13:37.388Z,100.00
2024-01-12T18:16:04.280Z,100.00
2024-01-12T18:18:30.927Z,100.00
2024-01-12T18:20:57.597Z,100.00
2024-01-12T18:23:25.018Z,100.00
2024-01-12T18:25:54.721Z,100.00
2024-01-12T18:28:21.336Z,100.00
2024-01-12T18:30:47.900Z,100.00
2024-01-12T18:33:14.606Z,100.00
2024-01-12T18:35:42.205Z,100.00
2024-01-12T18:38:08.899Z,100.00
2024-01-12T18:40:35.829Z,100.00
2024-01-12T18:43:02.411Z,100.00
2024-01-12T18:45:33.759Z,100.00
2024-01-12T18:48:00.699Z,100.00
2024-01-12T18:50:27.353Z,100.00
2024-01-12T18:52:54.183Z,100.00
2024-01-12T18:55:20.881Z,100.00
2024-01-12T18:57:47.472Z,100.00
2024-01-12T19:00:14.525Z,100.00
2024-01-12T19:02:41.194Z,100.00
2024-01-12T19:05:08.033Z,100.00
2024-01-12T19:07:34.624Z,100.00
2024-01-12T19:10:01.150Z,100.00
2024-01-12T19:12:27.738Z,100.00
2024-01-12T19:14:54.337Z,100.00
2024-01-12T19:17:20.895Z,100.00
2024-01-12T19:19:47.488Z,100.00
2024-01-12T19:22:14.138Z,100.00
2024-01-12T19:24:45.116Z,100.00
2024-01-12T19:27:12.218Z,100.00
2024-01-12T19:29:39.314Z,100.00
2024-01-12T19:32:06.785Z,100.00
2024-01-12T19:34:33.306Z,100.00
2024-01-12T19:36:59.854Z,100.00
2024-01-12T19:39:26.457Z,100.00
2024-01-12T19:41:58.380Z,100.00
2024-01-12T19:44:25.133Z,100.00
2024-01-12T19:46:51.766Z,100.00
2024-01-12T19:49:18.453Z,100.00
2024-01-12T19:51:45.126Z,100.00
2024-01-12T19:54:11.777Z,100.00
2024-01-12T19:56:38.428Z,100.00
2024-01-12T19:59:06.255Z,100.00
2024-01-12T20:01:33.589Z,100.00
2024-01-12T20:04:01.515Z,100.00
2024-01-12T20:06:28.231Z,100.00
2024-01-12T20:08:55.119Z,100.00
2024-01-12T20:11:21.702Z,100.00
2024-01-12T20:13:48.259Z,100.00
2024-01-12T20:16:14.928Z,100.00
2024-01-12T20:18:41.689Z,100.00
2024-01-12T20:21:11.375Z,100.00
2024-01-12T20:23:38.692Z,100.00
2024-01-12T20:26:05.290Z,100.00
2024-01-12T20:28:31.909Z,100.00
2024-01-12T20:30:58.519Z,100.00
2024-01-12T20:33:25.386Z,100.00
2024-01-12T20:35:52.184Z,100.00
2024-01-12T20:38:18.734Z,100.00
2024-01-12T20:40:45.250Z,100.00
2024-01-12T20:43:11.874Z,100.00
2024-01-12T20:45:38.472Z,100.00
2024-01-12T20:48:05.502Z,100.00
2024-01-12T20:50:32.189Z,100.00
2024-01-12T20:52:58.695Z,100.00
2024-01-12T20:55:25.263Z,100.00
2024-01-12T20:57:51.828Z,100.00
2024-01-12T21:00:20.047Z,100.00
2024-01-12T21:02:47.482Z,100.00
2024-01-12T21:05:14.162Z,100.00
2024-01-12T21:07:40.688Z,100.00
2024-01-12T21:10:07.965Z,100.00
2024-01-12T21:12:37.427Z,100.00
2024-01-12T21:15:04.760Z,100.00
2024-01-12T21:17:31.367Z,100.00
2024-01-12T21:19:58.040Z,100.00
2024-01-12T21:22:30.195Z,100.00
2024-01-12T21:25:05.399Z,100.00
2024-01-12T21:27:34.978Z,100.00
2024-01-12T21:30:03.512Z,100.00
2024-01-12T21:32:30.286Z,100.00
2024-01-12T21:34:56.946Z,100.00
2024-01-12T21:37:23.678Z,100.00
2024-01-12T21:39:50.259Z,100.00
2024-01-12T21:42:19.413Z,100.00
2024-01-12T21:44:46.241Z,100.00
2024-01-12T21:47:14.702Z,100.00
2024-01-12T21:49:41.452Z,100.00
2024-01-12T21:52:08.279Z,100.00
2024-01-12T21:54:34.815Z,100.00
2024-01-12T21:57:01.376Z,100.00
2024-01-12T21:59:27.980Z,100.00
2024-01-12T22:01:54.584Z,100.00
2024-01-12T22:04:21.293Z,100.00
2024-01-12T22:06:48.797Z,100.00
2024-01-12T22:09:15.480Z,100.00
2024-01-12T22:11:43.920Z,100.00
2024-01-12T22:14:10.505Z,100.00
2024-01-12T22:16:37.075Z,100.00
2024-01-12T22:19:05.885Z,100.00
2024-01-12T22:21:36.277Z,100.00
2024-01-12T22:24:09.099Z,100.00
2024-01-12T22:26:35.799Z,100.00
2024-01-12T22:29:02.314Z,100.00
2024-01-12T22:31:28.842Z,100.00
2024-01-12T22:33:55.524Z,100.00
2024-01-12T22:36:22.285Z,100.00
2024-01-12T22:38:48.823Z,100.00
2024-01-12T22:41:15.411Z,100.00
2024-01-12T22:43:41.992Z,100.00
2024-01-12T22:46:08.677Z,100.00
2024-01-12T22:48:35.352Z,100.00
2024-01-12T22:51:02.095Z,100.00
2024-01-12T22:53:28.666Z,100.00
2024-01-12T22:55:55.376Z,100.00
2024-01-12T22:58:21.982Z,100.00
2024-01-12T23:00:50.307Z,100.00
2024-01-12T23:03:16.995Z,100.00
2024-01-12T23:05:44.111Z,100.00
2024-01-12T23:08:10.722Z,100.00
2024-01-12T23:10:37.302Z,100.00
2024-01-12T23:13:03.955Z,100.00
2024-01-12T23:15:30.498Z,100.00
2024-01-12T23:17:57.184Z,100.00
2024-01-12T23:20:23.780Z,100.00
2024-01-12T23:22:50.290Z,100.00
2024-01-12T23:25:16.826Z,100.00
2024-01-12T23:27:44.570Z,100.00
2024-01-12T23:30:12.899Z,100.00
2024-01-12T23:32:39.861Z,100.00
2024-01-12T23:35:09.946Z,100.00
2024-01-12T23:37:36.659Z,100.00
2024-01-12T23:40:04.039Z,100.00
2024-01-12T23:42:30.571Z,100.00
2024-01-12T23:44:57.984Z,100.00
2024-01-12T23:47:24.685Z,100.00
2024-01-12T23:49:51.442Z,100.00
2024-01-12T23:52:18.037Z,100.00
2024-01-12T23:54:44.661Z,100.00
2024-01-12T23:57:11.330Z,100.00
2024-01-12T23:59:38.000Z,100.00
